Time;durP1;ratioP1;P1;durP2;ratioP2;P2;SDS_P1;SDS_P2;PMS_P1;PMS_P2;Temp;Humidity;BMP_temperature;BMP_pressure;BME280_temperature;BME280_humidity;BME280_pressure;Samples;Min_cycle;Max_cycle;Signal;HPM_P1;HPM_P2
2023/05/26 00:00:17;;;;;;;;;;;20.40;93.60;;;;;;5114610;28;19907;-58
2023/05/26 00:02:43;;;;;;;;;;;20.40;93.30;;;;;;5111680;28;19919;-58
2023/05/26 00:05:09;;;;;;;;;;;20.40;93.30;;;;;;5111741;28;19947;-58
2023/05/26 00:07:42;;;;;;;;;;;20.40;93.30;;;;;;5114687;28;19907;-60
2023/05/26 00:10:08;;;;;;;;;;;20.40;93.30;;;;;;5114317;28;19961;-58
2023/05/26 00:12:33;;;;;;;;;;;20.40;93.30;;;;;;5108452;28;19923;-60
2023/05/26 00:14:59;;;;;;;;;;;20.40;93.30;;;;;;5110455;28;19912;-52
2023/05/26 00:17:28;;;;;;;;;;;20.40;93.30;;;;;;5114558;28;20362;-54
2023/05/26 00:19:53;;;;;;;;;;;20.40;93.30;;;;;;5114552;28;20338;-57
2023/05/26 00:22:19;;;;;;;;;;;20.40;93.30;;;;;;5108533;28;20044;-58
2023/05/26 00:24:45;;;;;;;;;;;20.40;93.30;;;;;;5114184;28;20286;-59
2023/05/26 00:27:11;;;;;;;;;;;20.40;93.30;;;;;;5114409;28;19963;-58
2023/05/26 00:29:37;;;;;;;;;;;20.40;93.30;;;;;;5114476;28;19915;-58
2023/05/26 00:32:05;;;;;;;;;;;20.40;93.30;;;;;;5113235;28;19908;-55
2023/05/26 00:34:33;;;;;;;;;;;20.40;93.60;;;;;;5108162;28;19912;-55
2023/05/26 00:37:00;;;;;;;;;;;20.40;93.30;;;;;;5114405;28;19908;-57
2023/05/26 00:39:25;;;;;;;;;;;20.40;93.30;;;;;;5114119;28;19912;-58
2023/05/26 00:41:51;;;;;;;;;;;20.40;93.30;;;;;;5111528;28;20003;-55
2023/05/26 00:44:16;;;;;;;;;;;20.40;93.30;;;;;;5114329;28;19924;-59
2023/05/26 00:46:42;;;;;;;;;;;20.40;93.30;;;;;;5114360;28;19956;-52
2023/05/26 00:49:08;;;;;;;;;;;20.40;93.30;;;;;;5114055;28;20226;-52
2023/05/26 00:51:33;;;;;;;;;;;20.40;93.30;;;;;;5104030;28;19916;-60
2023/05/26 00:53:59;;;;;;;;;;;20.50;93.30;;;;;;5107900;28;19912;-59
2023/05/26 00:56:27;;;;;;;;;;;20.50;93.30;;;;;;5096004;28;19915;-59
2023/05/26 00:58:53;;;;;;;;;;;20.50;93.30;;;;;;5114271;28;19908;-57
2023/05/26 01:01:19;;;;;;;;;;;20.40;93.30;;;;;;5113873;28;19923;-56
2023/05/26 01:03:45;;;;;;;;;;;20.40;93.30;;;;;;5114254;28;19908;-57
2023/05/26 01:06:10;;;;;;;;;;;20.50;93.30;;;;;;5111394;28;19911;-59
2023/05/26 01:08:36;;;;;;;;;;;20.50;93.30;;;;;;5114097;28;20350;-59
2023/05/26 01:11:16;;;;;;;;;;;20.50;93.30;;;;;;5113833;28;19961;-60
2023/05/26 01:13:52;;;;;;;;;;;20.50;93.30;;;;;;5111136;28;19912;-59
2023/05/26 01:16:22;;;;;;;;;;;20.50;93.30;;;;;;5095999;28;19958;-54
2023/05/26 01:18:54;;;;;;;;;;;20.50;93.30;;;;;;5111133;28;19916;-58
2023/05/26 01:21:21;;;;;;;;;;;20.50;93.30;;;;;;5113800;28;19951;-56
2023/05/26 01:23:59;;;;;;;;;;;20.50;93.30;;;;;;5114052;28;20002;-53
2023/05/26 01:26:42;;;;;;;;;;;20.50;93.30;;;;;;5104758;28;19919;-60
2023/05/26 01:29:12;;;;;;;;;;;20.50;93.30;;;;;;5089505;28;19916;-60
2023/05/26 01:31:39;;;;;;;;;;;20.50;92.10;;;;;;5104046;28;19937;-59
2023/05/26 01:34:05;;;;;;;;;;;20.40;92.60;;;;;;5112025;28;19912;-59
2023/05/26 01:36:31;;;;;;;;;;;20.50;92.80;;;;;;5096814;28;19987;-60
2023/05/26 01:38:56;;;;;;;;;;;20.40;92.90;;;;;;5097079;28;19943;-60
2023/05/26 01:41:30;;;;;;;;;;;20.40;93.00;;;;;;5097004;28;19933;-60
2023/05/26 01:43:56;;;;;;;;;;;20.40;93.00;;;;;;5097156;28;19920;-59
2023/05/26 01:46:21;;;;;;;;;;;20.40;93.10;;;;;;5109335;28;19916;-60
2023/05/26 01:48:47;;;;;;;;;;;20.40;93.10;;;;;;5096575;28;19918;-59
2023/05/26 01:51:15;;;;;;;;;;;20.40;93.10;;;;;;5096897;28;19927;-59
2023/05/26 01:53:42;;;;;;;;;;;20.40;93.10;;;;;;5095967;28;19966;-60
2023/05/26 01:56:08;;;;;;;;;;;20.40;93.10;;;;;;5094711;28;19912;-60
2023/05/26 01:58:33;;;;;;;;;;;20.40;93.10;;;;;;5094691;28;19908;-59
2023/05/26 02:00:59;;;;;;;;;;;20.40;93.20;;;;;;5094212;28;19916;-59
2023/05/26 02:03:24;;;;;;;;;;;20.40;93.20;;;;;;5094237;28;19908;-60
2023/05/26 02:05:50;;;;;;;;;;;20.40;93.20;;;;;;5094125;28;19931;-60
2023/05/26 02:08:15;;;;;;;;;;;20.40;93.20;;;;;;5094394;28;19954;-60
2023/05/26 02:10:41;;;;;;;;;;;20.40;93.20;;;;;;5096145;28;19909;-60
2023/05/26 02:13:06;;;;;;;;;;;20.40;93.20;;;;;;5096530;28;20339;-60
2023/05/26 02:15:32;;;;;;;;;;;20.40;93.20;;;;;;5096396;28;19912;-60
2023/05/26 02:17:58;;;;;;;;;;;20.40;93.20;;;;;;5096334;28;19916;-60
2023/05/26 02:20:24;;;;;;;;;;;20.40;93.10;;;;;;5096127;28;19961;-60
2023/05/26 02:22:50;;;;;;;;;;;20.40;93.10;;;;;;5096292;28;19912;-60
2023/05/26 02:25:15;;;;;;;;;;;20.40;93.10;;;;;;5096487;28;20259;-60
2023/05/26 02:27:41;;;;;;;;;;;20.40;93.10;;;;;;5096448;28;20015;-60
2023/05/26 02:30:07;;;;;;;;;;;20.40;93.10;;;;;;5096433;28;20312;-60
2023/05/26 02:32:34;;;;;;;;;;;20.40;93.10;;;;;;5077878;28;19952;-60
2023/05/26 02:35:00;;;;;;;;;;;20.40;93.10;;;;;;5078171;28;19950;-60
2023/05/26 02:37:26;;;;;;;;;;;20.40;93.10;;;;;;5095082;28;19908;-60
2023/05/26 02:39:52;;;;;;;;;;;20.40;93.10;;;;;;5095951;28;19916;-60
2023/05/26 02:42:17;;;;;;;;;;;20.40;93.10;;;;;;5095561;28;19920;-60
2023/05/26 02:44:43;;;;;;;;;;;20.30;93.10;;;;;;5095348;28;19927;-60
2023/05/26 02:47:08;;;;;;;;;;;20.40;93.10;;;;;;5095450;28;19915;-60
2023/05/26 02:49:34;;;;;;;;;;;20.30;93.10;;;;;;5095658;28;19930;-60
2023/05/26 02:51:59;;;;;;;;;;;20.40;93.10;;;;;;5095658;28;19953;-60
2023/05/26 02:54:25;;;;;;;;;;;20.40;93.10;;;;;;5095620;28;19915;-60
2023/05/26 02:56:50;;;;;;;;;;;20.40;93.10;;;;;;5095626;28;19908;-60
2023/05/26 02:59:16;;;;;;;;;;;20.30;93.10;;;;;;5095550;28;20363;-59
2023/05/26 03:01:41;;;;;;;;;;;20.40;93.10;;;;;;5095436;28;19977;-60
2023/05/26 03:04:07;;;;;;;;;;;20.40;93.10;;;;;;5095164;28;20030;-59
2023/05/26 03:06:32;;;;;;;;;;;20.30;93.10;;;;;;5095392;28;20377;-60
2023/05/26 03:08:58;;;;;;;;;;;20.40;93.10;;;;;;5095572;28;19908;-59
2023/05/26 03:11:23;;;;;;;;;;;20.30;93.00;;;;;;5095010;28;19908;-59
2023/05/26 03:13:49;;;;;;;;;;;20.40;93.00;;;;;;5094954;28;19908;-59
2023/05/26 03:16:14;;;;;;;;;;;20.40;93.00;;;;;;5095189;28;20007;-59
2023/05/26 03:18:40;;;;;;;;;;;20.40;93.00;;;;;;5095101;28;19908;-60
2023/05/26 03:21:06;;;;;;;;;;;20.30;93.00;;;;;;5095041;28;19916;-59
2023/05/26 03:23:32;;;;;;;;;;;20.40;93.00;;;;;;5095096;28;19909;-60
2023/05/26 03:25:57;;;;;;;;;;;20.40;93.00;;;;;;5094631;28;20003;-60
2023/05/26 03:28:23;;;;;;;;;;;20.30;93.00;;;;;;5094901;28;19908;-59
2023/05/26 03:30:48;;;;;;;;;;;20.30;93.00;;;;;;5095190;28;19915;-59
2023/05/26 03:33:13;;;;;;;;;;;20.40;93.00;;;;;;5094480;28;19948;-59
2023/05/26 03:35:39;;;;;;;;;;;20.30;93.00;;;;;;5094702;28;19912;-59
2023/05/26 03:38:05;;;;;;;;;;;20.30;93.00;;;;;;5094816;28;19951;-59
2023/05/26 03:40:30;;;;;;;;;;;20.40;93.00;;;;;;5076135;28;19908;-59
2023/05/26 03:42:56;;;;;;;;;;;20.30;93.00;;;;;;5094586;28;19927;-59
2023/05/26 03:45:21;;;;;;;;;;;20.30;93.00;;;;;;5094471;28;19912;-59
2023/05/26 03:47:47;;;;;;;;;;;20.30;93.00;;;;;;5094276;28;19958;-59
2023/05/26 03:50:12;;;;;;;;;;;20.30;93.00;;;;;;5094568;28;19908;-59
2023/05/26 03:52:38;;;;;;;;;;;20.30;93.00;;;;;;5094358;28;19908;-59
2023/05/26 03:55:05;;;;;;;;;;;20.30;93.00;;;;;;5094477;28;19993;-59
2023/05/26 03:57:31;;;;;;;;;;;20.30;93.00;;;;;;5094527;28;19908;-60
2023/05/26 03:59:56;;;;;;;;;;;20.30;93.00;;;;;;5094509;28;20251;-59
2023/05/26 04:02:22;;;;;;;;;;;20.30;93.00;;;;;;5094337;28;20010;-59
2023/05/26 04:04:47;;;;;;;;;;;20.30;93.00;;;;;;5094213;28;19918;-59
2023/05/26 04:07:13;;;;;;;;;;;20.30;93.00;;;;;;5094313;28;19954;-60
2023/05/26 04:09:38;;;;;;;;;;;20.30;93.00;;;;;;5094216;28;19912;-60
2023/05/26 04:12:05;;;;;;;;;;;20.30;93.00;;;;;;5093918;28;19955;-59
2023/05/26 04:14:30;;;;;;;;;;;20.30;93.00;;;;;;5094157;28;19954;-60
2023/05/26 04:16:56;;;;;;;;;;;20.30;93.10;;;;;;5093830;28;19912;-60
2023/05/26 04:19:21;;;;;;;;;;;20.30;93.10;;;;;;5094590;28;19912;-60
2023/05/26 04:21:47;;;;;;;;;;;20.30;93.10;;;;;;5093625;28;19966;-59
2023/05/26 04:24:12;;;;;;;;;;;20.30;93.10;;;;;;5093767;28;19916;-59
2023/05/26 04:26:38;;;;;;;;;;;20.30;93.10;;;;;;5094359;28;20351;-59
2023/05/26 04:29:03;;;;;;;;;;;20.30;93.10;;;;;;5093792;28;19914;-60
2023/05/26 04:31:29;;;;;;;;;;;20.30;93.10;;;;;;5093737;28;20362;-59
2023/05/26 04:33:57;;;;;;;;;;;20.30;93.10;;;;;;5094051;28;19961;-59
2023/05/26 04:36:23;;;;;;;;;;;20.30;93.10;;;;;;5075911;28;20420;-60
2023/05/26 04:38:48;;;;;;;;;;;20.30;93.20;;;;;;5094046;28;19908;-59
2023/05/26 04:41:15;;;;;;;;;;;20.30;93.20;;;;;;5093906;28;19920;-59
2023/05/26 04:43:43;;;;;;;;;;;20.20;93.20;;;;;;5075621;28;19934;-59
2023/05/26 04:46:10;;;;;;;;;;;20.20;93.20;;;;;;5093930;28;19931;-59
2023/05/26 04:48:39;;;;;;;;;;;20.20;93.30;;;;;;5093896;28;20321;-60
2023/05/26 04:51:08;;;;;;;;;;;20.20;93.30;;;;;;5093928;28;19969;-59
2023/05/26 04:53:35;;;;;;;;;;;20.20;93.30;;;;;;5093127;28;20391;-59
2023/05/26 04:56:01;;;;;;;;;;;20.20;93.30;;;;;;5093471;28;19916;-59
2023/05/26 04:58:27;;;;;;;;;;;20.20;93.30;;;;;;5093637;28;20260;-59
2023/05/26 05:00:53;;;;;;;;;;;20.20;93.40;;;;;;5094903;28;19941;-59
2023/05/26 05:03:20;;;;;;;;;;;20.20;93.40;;;;;;5097783;28;20077;-59
2023/05/26 05:05:46;;;;;;;;;;;20.20;93.40;;;;;;5097716;28;19912;-59
2023/05/26 05:08:12;;;;;;;;;;;20.20;93.40;;;;;;5097427;28;19915;-60
2023/05/26 05:10:37;;;;;;;;;;;20.20;93.40;;;;;;5097278;28;19912;-59
2023/05/26 05:13:03;;;;;;;;;;;20.20;93.40;;;;;;5097587;28;20007;-59
2023/05/26 05:15:28;;;;;;;;;;;20.20;93.40;;;;;;5097155;28;19915;-59
2023/05/26 05:17:54;;;;;;;;;;;20.20;93.40;;;;;;5096949;28;20029;-59
2023/05/26 05:20:20;;;;;;;;;;;20.20;93.40;;;;;;5096982;28;19958;-59
2023/05/26 05:22:45;;;;;;;;;;;20.20;93.40;;;;;;5096936;28;20404;-59
2023/05/26 05:25:10;;;;;;;;;;;20.20;93.40;;;;;;5096849;28;19908;-59
2023/05/26 05:27:36;;;;;;;;;;;20.20;93.40;;;;;;5096714;28;19915;-59
2023/05/26 05:30:02;;;;;;;;;;;20.20;93.30;;;;;;5097022;28;20008;-59
2023/05/26 05:32:27;;;;;;;;;;;20.20;93.30;;;;;;5096597;28;19966;-59
2023/05/26 05:34:53;;;;;;;;;;;20.20;93.30;;;;;;5096623;28;20351;-59
2023/05/26 05:37:19;;;;;;;;;;;20.20;93.20;;;;;;5096741;28;20362;-59
2023/05/26 05:39:44;;;;;;;;;;;20.20;93.30;;;;;;5096487;28;19999;-59
2023/05/26 05:42:10;;;;;;;;;;;20.20;93.30;;;;;;5096798;28;20014;-59
2023/05/26 05:44:35;;;;;;;;;;;20.20;93.30;;;;;;5096735;28;19920;-59
2023/05/26 05:47:01;;;;;;;;;;;20.20;93.30;;;;;;5096802;28;19934;-59
2023/05/26 05:49:26;;;;;;;;;;;20.20;93.30;;;;;;5096629;28;19908;-59
2023/05/26 05:51:52;;;;;;;;;;;20.20;93.40;;;;;;5078471;28;20279;-59
2023/05/26 05:54:17;;;;;;;;;;;20.20;93.30;;;;;;5096440;28;20068;-59
2023/05/26 05:56:43;;;;;;;;;;;20.20;93.40;;;;;;5096379;28;19909;-59
2023/05/26 05:59:10;;;;;;;;;;;20.20;93.40;;;;;;5095970;28;19961;-59
2023/05/26 06:01:36;;;;;;;;;;;20.20;93.40;;;;;;5096299;28;19916;-60
2023/05/26 06:04:02;;;;;;;;;;;20.20;93.40;;;;;;5096694;28;20358;-59
2023/05/26 06:06:27;;;;;;;;;;;20.20;93.30;;;;;;5095944;28;19994;-59
2023/05/26 06:08:53;;;;;;;;;;;20.20;93.40;;;;;;5095956;28;20340;-59
2023/05/26 06:11:18;;;;;;;;;;;20.20;93.40;;;;;;5096012;28;19919;-59
2023/05/26 06:13:44;;;;;;;;;;;20.20;93.30;;;;;;5095373;28;19912;-59
2023/05/26 06:16:09;;;;;;;;;;;20.20;93.40;;;;;;5095688;28;20324;-59
2023/05/26 06:18:34;;;;;;;;;;;20.20;93.40;;;;;;5095789;28;19975;-59
2023/05/26 06:21:00;;;;;;;;;;;20.20;93.30;;;;;;5095681;28;19924;-58
2023/05/26 06:23:25;;;;;;;;;;;20.20;93.30;;;;;;5095903;28;19908;-59
2023/05/26 06:25:51;;;;;;;;;;;20.20;93.30;;;;;;5095572;28;20334;-59
2023/05/26 06:28:16;;;;;;;;;;;20.20;93.30;;;;;;5077292;28;19908;-59
2023/05/26 06:30:42;;;;;;;;;;;20.20;93.30;;;;;;5077368;28;20014;-59
2023/05/26 06:33:07;;;;;;;;;;;20.20;93.20;;;;;;5095046;28;19920;-59
2023/05/26 06:35:33;;;;;;;;;;;20.20;93.20;;;;;;5095257;28;19976;-59
2023/05/26 06:37:58;;;;;;;;;;;20.20;93.20;;;;;;5095405;28;19908;-58
2023/05/26 06:40:24;;;;;;;;;;;20.20;93.30;;;;;;5095545;28;20022;-58
2023/05/26 06:42:50;;;;;;;;;;;20.20;93.20;;;;;;5077135;28;20274;-58
2023/05/26 06:45:15;;;;;;;;;;;20.20;93.20;;;;;;5095530;28;19915;-58
2023/05/26 06:47:40;;;;;;;;;;;20.20;93.10;;;;;;5095535;28;19909;-58
2023/05/26 06:50:06;;;;;;;;;;;20.20;93.00;;;;;;5095523;28;19915;-58
2023/05/26 06:52:32;;;;;;;;;;;20.20;93.10;;;;;;5094771;28;20342;-58
2023/05/26 06:54:57;;;;;;;;;;;20.20;93.00;;;;;;5095590;28;19912;-58
2023/05/26 06:57:23;;;;;;;;;;;20.20;93.10;;;;;;5093454;28;20424;-58
2023/05/26 06:59:48;;;;;;;;;;;20.10;93.10;;;;;;5107425;28;20362;-58
2023/05/26 07:02:14;;;;;;;;;;;20.20;93.10;;;;;;5088780;28;19923;-58
2023/05/26 07:04:41;;;;;;;;;;;20.10;93.20;;;;;;5108966;28;20343;-58
2023/05/26 07:07:07;;;;;;;;;;;20.20;93.30;;;;;;5102872;28;20271;-58
2023/05/26 07:09:32;;;;;;;;;;;20.20;93.30;;;;;;5093227;28;19920;-58
2023/05/26 07:11:58;;;;;;;;;;;20.10;93.30;;;;;;5094761;28;19908;-58
2023/05/26 07:14:23;;;;;;;;;;;20.20;93.40;;;;;;5095020;28;19908;-57
2023/05/26 07:16:49;;;;;;;;;;;20.20;93.30;;;;;;5076928;28;19908;-58
2023/05/26 07:19:14;;;;;;;;;;;20.20;93.40;;;;;;5096491;28;19912;-58
2023/05/26 07:21:40;;;;;;;;;;;20.20;93.40;;;;;;5076196;28;19958;-59
2023/05/26 07:24:05;;;;;;;;;;;20.20;93.30;;;;;;5076208;28;19958;-59
2023/05/26 07:26:31;;;;;;;;;;;20.20;93.30;;;;;;5094833;28;20062;-60
2023/05/26 07:28:56;;;;;;;;;;;20.10;93.30;;;;;;5094483;28;20002;-59
2023/05/26 07:31:22;;;;;;;;;;;20.20;93.30;;;;;;5076476;28;20424;-59
2023/05/26 07:33:47;;;;;;;;;;;20.20;93.40;;;;;;5094396;28;19951;-59
2023/05/26 07:36:13;;;;;;;;;;;20.20;93.40;;;;;;5094497;28;19993;-59
2023/05/26 07:38:39;;;;;;;;;;;20.20;93.40;;;;;;5094440;28;19908;-59
2023/05/26 07:41:04;;;;;;;;;;;20.20;93.40;;;;;;5075959;28;19920;-58
2023/05/26 07:43:30;;;;;;;;;;;20.20;93.40;;;;;;5094157;28;20375;-59
2023/05/26 07:45:55;;;;;;;;;;;20.20;93.50;;;;;;5097674;28;19923;-59
2023/05/26 07:48:21;;;;;;;;;;;20.10;93.50;;;;;;5113288;28;20370;-58
2023/05/26 07:50:46;;;;;;;;;;;20.10;93.50;;;;;;5074724;28;20007;-58
2023/05/26 07:53:12;;;;;;;;;;;20.10;93.40;;;;;;5076183;28;19908;-58
2023/05/26 07:55:40;;;;;;;;;;;20.10;93.30;;;;;;5093056;28;20278;-58
2023/05/26 07:58:06;;;;;;;;;;;20.10;93.40;;;;;;5098138;28;19913;-58
2023/05/26 08:00:31;;;;;;;;;;;20.10;93.50;;;;;;5078177;28;20248;-57
2023/05/26 08:02:57;;;;;;;;;;;20.10;93.50;;;;;;5092501;28;19981;-57
2023/05/26 08:05:26;;;;;;;;;;;20.10;93.50;;;;;;5098607;28;19943;-59
2023/05/26 08:07:51;;;;;;;;;;;20.10;93.60;;;;;;5114624;28;19934;-59
2023/05/26 08:10:17;;;;;;;;;;;20.20;93.60;;;;;;5098316;28;19912;-59
2023/05/26 08:12:43;;;;;;;;;;;20.20;93.60;;;;;;5099345;28;19919;-59
2023/05/26 08:15:13;;;;;;;;;;;20.20;93.60;;;;;;5094207;28;20267;-59
2023/05/26 08:17:38;;;;;;;;;;;20.20;93.60;;;;;;5094088;28;19909;-58
2023/05/26 08:20:04;;;;;;;;;;;20.20;93.70;;;;;;5094013;28;19908;-59
2023/05/26 08:22:30;;;;;;;;;;;20.20;93.60;;;;;;5093679;28;20413;-59
2023/05/26 08:24:57;;;;;;;;;;;20.20;93.60;;;;;;5094047;28;19961;-58
2023/05/26 08:27:22;;;;;;;;;;;20.20;93.50;;;;;;5075616;28;19913;-58
2023/05/26 08:29:47;;;;;;;;;;;20.10;93.20;;;;;;5093738;28;19919;-59
2023/05/26 08:32:13;;;;;;;;;;;20.20;93.40;;;;;;5093652;28;19916;-59
2023/05/26 08:34:38;;;;;;;;;;;20.20;93.30;;;;;;5075698;28;20359;-58
2023/05/26 08:37:04;;;;;;;;;;;20.20;93.30;;;;;;5097474;28;19908;-58
2023/05/26 08:39:29;;;;;;;;;;;20.20;93.40;;;;;;5079828;28;19908;-59
2023/05/26 08:41:59;;;;;;;;;;;20.20;93.40;;;;;;5097973;28;19962;-59
2023/05/26 08:44:25;;;;;;;;;;;20.20;93.40;;;;;;5097810;28;19920;-58
2023/05/26 08:46:57;;;;;;;;;;;20.20;93.40;;;;;;5097886;28;19908;-60
2023/05/26 08:49:23;;;;;;;;;;;20.20;93.40;;;;;;5079868;28;20277;-60
2023/05/26 08:51:54;;;;;;;;;;;20.20;93.40;;;;;;5097951;28;19908;-58
2023/05/26 08:54:20;;;;;;;;;;;20.20;93.40;;;;;;5097860;28;19908;-60
2023/05/26 08:56:47;;;;;;;;;;;20.20;93.40;;;;;;5097735;28;19909;-60
2023/05/26 08:59:13;;;;;;;;;;;20.20;93.30;;;;;;5079589;28;19915;-60
2023/05/26 09:01:39;;;;;;;;;;;20.20;93.40;;;;;;5097371;28;19923;-60
2023/05/26 09:04:04;;;;;;;;;;;20.20;93.60;;;;;;5097315;28;19908;-60
2023/05/26 09:06:31;;;;;;;;;;;20.20;93.40;;;;;;5097329;28;20002;-60
2023/05/26 09:08:56;;;;;;;;;;;20.20;93.60;;;;;;5097235;28;19908;-60
2023/05/26 09:11:22;;;;;;;;;;;20.20;93.40;;;;;;5079322;28;19962;-60
2023/05/26 09:13:52;;;;;;;;;;;20.20;93.40;;;;;;5097699;28;19999;-60
2023/05/26 09:16:20;;;;;;;;;;;20.20;93.40;;;;;;5097771;28;20011;-59
2023/05/26 09:18:46;;;;;;;;;;;20.20;93.40;;;;;;5097068;28;20421;-60
2023/05/26 09:21:12;;;;;;;;;;;20.20;93.30;;;;;;5102021;28;20018;-60
2023/05/26 09:23:38;;;;;;;;;;;20.20;93.40;;;;;;5078310;28;19923;-60
2023/05/26 09:26:05;;;;;;;;;;;20.20;93.30;;;;;;5095723;28;20011;-59
2023/05/26 09:28:31;;;;;;;;;;;20.20;93.40;;;;;;5095550;28;19935;-60
2023/05/26 09:30:56;;;;;;;;;;;20.20;93.40;;;;;;5098329;28;20347;-60
2023/05/26 09:33:22;;;;;;;;;;;20.20;93.30;;;;;;5097096;28;19959;-60
2023/05/26 09:35:48;;;;;;;;;;;20.20;93.30;;;;;;5078786;28;19912;-61
2023/05/26 09:38:15;;;;;;;;;;;20.10;93.30;;;;;;5102041;28;19912;-60
2023/05/26 09:40:41;;;;;;;;;;;20.20;93.30;;;;;;5097814;28;19912;-57
2023/05/26 09:43:07;;;;;;;;;;;20.20;93.20;;;;;;5095810;28;19943;-60
2023/05/26 09:45:35;;;;;;;;;;;20.10;92.70;;;;;;5104426;28;20363;-60
2023/05/26 09:48:01;;;;;;;;;;;20.10;92.60;;;;;;5094894;28;19916;-60
2023/05/26 09:50:29;;;;;;;;;;;20.10;92.80;;;;;;5103577;28;19920;-60
2023/05/26 09:52:56;;;;;;;;;;;20.10;93.00;;;;;;5097643;28;19915;-60
2023/05/26 09:55:21;;;;;;;;;;;20.20;93.10;;;;;;5117353;28;19920;-60
2023/05/26 09:57:47;;;;;;;;;;;20.10;93.10;;;;;;5104026;28;19919;-59
2023/05/26 10:00:16;;;;;;;;;;;20.20;93.10;;;;;;5062769;28;20414;-55
2023/05/26 10:02:42;;;;;;;;;;;20.10;93.10;;;;;;5093197;28;19962;-57
2023/05/26 10:05:07;;;;;;;;;;;20.10;93.20;;;;;;5094423;28;19916;-59
2023/05/26 10:07:34;;;;;;;;;;;20.20;93.20;;;;;;5076074;28;19963;-59
2023/05/26 10:10:00;;;;;;;;;;;20.20;93.20;;;;;;5096993;28;19970;-59
2023/05/26 10:12:35;;;;;;;;;;;20.20;93.20;;;;;;5097636;28;19908;-61
2023/05/26 10:15:01;;;;;;;;;;;20.20;93.40;;;;;;5100171;28;19912;-61
2023/05/26 10:17:27;;;;;;;;;;;20.20;93.40;;;;;;5097814;28;20396;-56
2023/05/26 10:19:53;;;;;;;;;;;20.20;93.40;;;;;;5078118;28;19908;-62
2023/05/26 10:22:25;;;;;;;;;;;20.20;93.40;;;;;;5106249;28;20359;-62
2023/05/26 10:24:55;;;;;;;;;;;20.20;93.40;;;;;;5096384;28;20254;-63
2023/05/26 10:27:44;;;;;;;;;;;20.20;93.40;;;;;;5093733;28;19908;-62
2023/05/26 10:30:12;;;;;;;;;;;20.20;93.50;;;;;;5041647;28;19912;-62
2023/05/26 10:32:40;;;;;;;;;;;20.20;93.50;;;;;;5091993;28;20355;-57
2023/05/26 10:35:19;;;;;;;;;;;20.20;93.50;;;;;;5092590;28;19958;-61
2023/05/26 10:37:47;;;;;;;;;;;20.20;93.50;;;;;;5095580;28;19912;-63
2023/05/26 10:40:32;;;;;;;;;;;20.20;93.50;;;;;;5090870;28;20000;-63
2023/05/26 10:42:58;;;;;;;;;;;20.20;93.60;;;;;;5097518;28;20003;-63
2023/05/26 10:45:23;;;;;;;;;;;20.20;93.60;;;;;;5116022;28;19915;-62
2023/05/26 10:47:49;;;;;;;;;;;20.20;93.60;;;;;;5103214;28;19912;-62
2023/05/26 10:50:14;;;;;;;;;;;20.20;93.60;;;;;;5103576;28;19911;-60
2023/05/26 10:52:47;;;;;;;;;;;20.20;93.60;;;;;;5092316;28;19989;-60
2023/05/26 10:55:31;;;;;;;;;;;20.20;93.50;;;;;;5092882;28;20310;-60
2023/05/26 10:58:19;;;;;;;;;;;20.20;93.60;;;;;;5094734;28;20300;-60
2023/05/26 11:00:45;;;;;;;;;;;20.20;93.60;;;;;;5077135;28;19943;-60
2023/05/26 11:03:30;;;;;;;;;;;20.20;93.60;;;;;;5091418;28;20343;-60
2023/05/26 11:05:56;;;;;;;;;;;20.20;93.60;;;;;;5101372;28;19916;-60
2023/05/26 11:08:22;;;;;;;;;;;20.20;93.60;;;;;;5094765;28;20260;-60
2023/05/26 11:11:02;;;;;;;;;;;20.20;93.60;;;;;;5076818;28;20003;-59
2023/05/26 11:13:41;;;;;;;;;;;20.20;93.60;;;;;;5095187;28;19912;-63
2023/05/26 11:16:10;;;;;;;;;;;20.30;93.60;;;;;;5094966;28;19985;-63
2023/05/26 11:18:36;;;;;;;;;;;20.30;93.60;;;;;;5088687;28;19912;-62
2023/05/26 11:21:01;;;;;;;;;;;20.20;93.60;;;;;;5095561;28;20278;-62
2023/05/26 11:23:27;;;;;;;;;;;20.20;93.60;;;;;;5106118;28;19920;-60
2023/05/26 11:25:53;;;;;;;;;;;20.20;93.60;;;;;;5114996;28;19908;-59
2023/05/26 11:28:20;;;;;;;;;;;20.20;93.60;;;;;;5110804;28;20389;-59
2023/05/26 11:30:46;;;;;;;;;;;20.20;93.60;;;;;;5093742;28;19965;-59
2023/05/26 11:33:15;;;;;;;;;;;20.20;93.60;;;;;;5091500;28;19912;-60
2023/05/26 11:35:40;;;;;;;;;;;20.20;93.60;;;;;;5092641;28;19913;-63
2023/05/26 11:38:06;;;;;;;;;;;20.20;93.50;;;;;;5094825;28;19916;-63
2023/05/26 11:40:32;;;;;;;;;;;20.30;93.60;;;;;;5094660;28;19966;-64
2023/05/26 11:42:57;;;;;;;;;;;20.30;93.60;;;;;;5093442;28;19928;-63
2023/05/26 11:45:25;;;;;;;;;;;20.30;93.60;;;;;;5092586;28;19912;-59
2023/05/26 11:47:51;;;;;;;;;;;20.20;93.50;;;;;;5090003;28;19913;-55
2023/05/26 11:50:17;;;;;;;;;;;20.30;93.60;;;;;;5087483;28;19916;-62
2023/05/26 11:52:46;;;;;;;;;;;20.30;93.60;;;;;;5091869;28;20460;-61
2023/05/26 11:55:13;;;;;;;;;;;20.30;93.50;;;;;;5085128;28;19908;-55
2023/05/26 11:57:40;;;;;;;;;;;20.30;93.50;;;;;;5094606;28;19914;-62
2023/05/26 12:00:10;;;;;;;;;;;20.30;93.50;;;;;;5093263;28;19908;-56
2023/05/26 12:02:39;;;;;;;;;;;20.30;93.60;;;;;;5091963;28;19958;-62
2023/05/26 12:05:29;;;;;;;;;;;20.30;93.60;;;;;;5096940;28;19912;-62
2023/05/26 12:08:04;;;;;;;;;;;20.30;93.60;;;;;;5112382;28;19904;-62
2023/05/26 12:10:32;;;;;;;;;;;20.30;93.60;;;;;;5093719;28;19999;-62
2023/05/26 12:12:58;;;;;;;;;;;20.30;93.60;;;;;;5070817;28;20362;-62
2023/05/26 12:15:24;;;;;;;;;;;20.30;93.60;;;;;;5093190;28;19945;-63
2023/05/26 12:17:53;;;;;;;;;;;20.30;93.60;;;;;;5094155;28;19998;-63
2023/05/26 12:20:19;;;;;;;;;;;20.30;93.60;;;;;;5094381;28;19914;-63
2023/05/26 12:22:48;;;;;;;;;;;20.30;93.60;;;;;;5093230;28;19912;-63
2023/05/26 12:25:20;;;;;;;;;;;20.30;93.70;;;;;;5075052;28;19965;-63
2023/05/26 12:27:47;;;;;;;;;;;20.30;93.80;;;;;;5093850;28;20244;-62
2023/05/26 12:30:16;;;;;;;;;;;20.30;93.80;;;;;;5074746;28;19919;-62
2023/05/26 12:32:42;;;;;;;;;;;20.30;93.80;;;;;;5091673;28;19908;-62
2023/05/26 12:35:07;;;;;;;;;;;20.30;93.80;;;;;;5093412;28;19912;-61
2023/05/26 12:37:33;;;;;;;;;;;20.30;93.80;;;;;;5099171;28;19914;-58
2023/05/26 12:39:58;;;;;;;;;;;20.30;93.80;;;;;;5093829;28;20404;-61
2023/05/26 12:42:24;;;;;;;;;;;20.40;93.80;;;;;;5092486;28;20316;-60
2023/05/26 12:44:49;;;;;;;;;;;20.40;93.80;;;;;;5075601;28;19927;-62
2023/05/26 12:47:15;;;;;;;;;;;20.30;93.70;;;;;;5093507;28;19956;-61
2023/05/26 12:49:40;;;;;;;;;;;20.30;93.80;;;;;;5099115;28;19927;-61
2023/05/26 12:52:06;;;;;;;;;;;20.30;93.80;;;;;;5110185;28;20278;-60
2023/05/26 12:54:31;;;;;;;;;;;20.40;93.50;;;;;;5111860;28;19908;-61
2023/05/26 12:56:57;;;;;;;;;;;20.30;93.70;;;;;;5101463;28;19907;-61
2023/05/26 12:59:23;;;;;;;;;;;20.40;93.70;;;;;;5098350;28;19911;-62
2023/05/26 13:01:48;;;;;;;;;;;20.30;93.70;;;;;;5104099;28;19947;-63
2023/05/26 13:04:14;;;;;;;;;;;20.30;93.70;;;;;;5091018;28;19947;-62
2023/05/26 13:06:39;;;;;;;;;;;20.40;93.70;;;;;;5075243;28;19999;-65
2023/05/26 13:09:05;;;;;;;;;;;20.40;93.70;;;;;;5093409;28;20339;-65
2023/05/26 13:11:30;;;;;;;;;;;20.40;93.70;;;;;;5100630;28;19904;-62
2023/05/26 13:13:56;;;;;;;;;;;20.40;93.70;;;;;;5095776;28;19914;-62
2023/05/26 13:16:22;;;;;;;;;;;20.40;93.80;;;;;;5073345;28;19908;-61
2023/05/26 13:18:48;;;;;;;;;;;20.40;93.80;;;;;;5107845;28;19912;-62
2023/05/26 13:21:13;;;;;;;;;;;20.40;93.70;;;;;;5112466;28;19915;-61
2023/05/26 13:23:38;;;;;;;;;;;20.40;93.70;;;;;;5102087;28;19971;-64
2023/05/26 13:26:04;;;;;;;;;;;20.40;93.70;;;;;;5086178;28;19904;-61
2023/05/26 13:28:31;;;;;;;;;;;20.40;93.70;;;;;;5102361;28;19912;-61
2023/05/26 13:30:56;;;;;;;;;;;20.40;93.70;;;;;;5105896;28;20334;-62
2023/05/26 13:33:22;;;;;;;;;;;20.40;93.80;;;;;;5104180;28;19908;-62
2023/05/26 13:35:47;;;;;;;;;;;20.40;93.70;;;;;;5097079;28;19931;-61
2023/05/26 13:38:13;;;;;;;;;;;20.40;93.70;;;;;;5097194;28;19965;-62
2023/05/26 13:40:38;;;;;;;;;;;20.40;93.70;;;;;;5097114;28;20254;-62
2023/05/26 13:43:04;;;;;;;;;;;20.40;93.70;;;;;;5113487;28;19973;-58
2023/05/26 13:45:32;;;;;;;;;;;20.40;93.80;;;;;;5084232;28;19908;-58
2023/05/26 13:47:58;;;;;;;;;;;20.40;93.80;;;;;;5100942;28;20532;-55
2023/05/26 13:50:24;;;;;;;;;;;20.40;93.80;;;;;;5076551;28;19915;-53
2023/05/26 13:52:49;;;;;;;;;;;20.40;93.90;;;;;;5095331;28;19991;-59
2023/05/26 13:55:15;;;;;;;;;;;20.40;93.80;;;;;;5077859;28;19947;-61
2023/05/26 13:57:40;;;;;;;;;;;20.40;93.90;;;;;;5076553;28;19912;-62
2023/05/26 14:00:06;;;;;;;;;;;20.40;93.80;;;;;;5095236;28;19951;-62
2023/05/26 14:02:32;;;;;;;;;;;20.40;93.80;;;;;;5085379;28;19912;-63
2023/05/26 14:04:58;;;;;;;;;;;20.40;93.90;;;;;;5096292;28;20258;-63
2023/05/26 14:07:24;;;;;;;;;;;20.50;93.80;;;;;;5096484;28;19911;-63
2023/05/26 14:09:49;;;;;;;;;;;20.50;93.80;;;;;;5096378;28;19904;-60
2023/05/26 14:12:17;;;;;;;;;;;20.50;93.80;;;;;;5096586;28;19905;-61